sensor_id;sensor_type;location;lat;lon;timestamp;pressure;altitude;pressure_sealevel;temperature;humidity
50682;BME280;36779;52.168;20.878;2023-08-24T00:00:34;100690.84;;;16.70;56.82
50682;BME280;36779;52.168;20.878;2023-08-24T00:03:26;100689.20;;;16.67;56.98
50682;BME280;36779;52.168;20.878;2023-08-24T00:05:59;100691.68;;;16.70;57.19
50682;BME280;36779;52.168;20.878;2023-08-24T00:08:32;100689.48;;;16.65;57.15
50682;BME280;36779;52.168;20.878;2023-08-24T00:11:04;100690.86;;;16.58;57.07
50682;BME280;36779;52.168;20.878;2023-08-24T00:13:38;100689.73;;;16.53;57.12
50682;BME280;36779;52.168;20.878;2023-08-24T00:16:11;100689.73;;;16.47;57.03
50682;BME280;36779;52.168;20.878;2023-08-24T00:18:43;100690.91;;;16.39;57.16
50682;BME280;36779;52.168;20.878;2023-08-24T00:21:17;100696.60;;;16.33;57.10
50682;BME280;36779;52.168;20.878;2023-08-24T00:23:54;100697.65;;;16.26;57.31
50682;BME280;36779;52.168;20.878;2023-08-24T00:26:26;100695.13;;;16.18;57.26
50682;BME280;36779;52.168;20.878;2023-08-24T00:28:59;100695.84;;;16.11;57.33
50682;BME280;36779;52.168;20.878;2023-08-24T00:31:32;100695.60;;;16.08;57.51
50682;BME280;36779;52.168;20.878;2023-08-24T00:34:07;100693.79;;;16.05;57.52
50682;BME280;36779;52.168;20.878;2023-08-24T00:36:40;100692.52;;;16.02;57.67
50682;BME280;36779;52.168;20.878;2023-08-24T00:39:14;100695.63;;;16.02;57.57
50682;BME280;36779;52.168;20.878;2023-08-24T00:41:47;100693.12;;;16.05;57.75
50682;BME280;36779;52.168;20.878;2023-08-24T00:44:20;100690.80;;;16.07;58.12
50682;BME280;36779;52.168;20.878;2023-08-24T00:46:53;100691.20;;;16.06;58.07
50682;BME280;36779;52.168;20.878;2023-08-24T00:49:27;100690.73;;;15.98;57.99
50682;BME280;36779;52.168;20.878;2023-08-24T00:52:00;100688.17;;;15.91;57.91
50682;BME280;36779;52.168;20.878;2023-08-24T00:54:33;100692.64;;;15.91;58.12
50682;BME280;36779;52.168;20.878;2023-08-24T00:57:06;100694.50;;;15.92;58.27
50682;BME280;36779;52.168;20.878;2023-08-24T00:59:40;100694.86;;;15.90;58.11
50682;BME280;36779;52.168;20.878;2023-08-24T01:02:15;100696.32;;;15.90;58.18
50682;BME280;36779;52.168;20.878;2023-08-24T01:04:49;100698.94;;;15.92;58.34
50682;BME280;36779;52.168;20.878;2023-08-24T01:07:22;100697.94;;;15.92;58.44
50682;BME280;36779;52.168;20.878;2023-08-24T01:09:56;100700.13;;;15.94;58.46
50682;BME280;36779;52.168;20.878;2023-08-24T01:12:43;100695.05;;;15.99;58.66
50682;BME280;36779;52.168;20.878;2023-08-24T01:15:25;100692.48;;;16.02;58.76
50682;BME280;36779;52.168;20.878;2023-08-24T01:18:08;100689.86;;;16.00;58.50
50682;BME280;36779;52.168;20.878;2023-08-24T01:20:46;100690.99;;;15.95;58.64
50682;BME280;36779;52.168;20.878;2023-08-24T01:23:36;100691.00;;;15.96;58.66
50682;BME280;36779;52.168;20.878;2023-08-24T01:26:12;100687.21;;;16.02;58.80
50682;BME280;36779;52.168;20.878;2023-08-24T01:28:48;100685.70;;;16.07;58.81
50682;BME280;36779;52.168;20.878;2023-08-24T01:31:21;100683.45;;;16.13;58.95
50682;BME280;36779;52.168;20.878;2023-08-24T01:33:54;100680.09;;;16.17;58.83
50682;BME280;36779;52.168;20.878;2023-08-24T01:36:27;100677.00;;;16.21;58.97
50682;BME280;36779;52.168;20.878;2023-08-24T01:39:11;100670.06;;;16.28;59.07
50682;BME280;36779;52.168;20.878;2023-08-24T01:41:49;100670.24;;;16.25;58.94
50682;BME280;36779;52.168;20.878;2023-08-24T01:44:25;100667.44;;;16.22;58.91
50682;BME280;36779;52.168;20.878;2023-08-24T01:47:05;100666.98;;;16.17;58.75
50682;BME280;36779;52.168;20.878;2023-08-24T01:49:45;100668.85;;;16.09;58.99
50682;BME280;36779;52.168;20.878;2023-08-24T01:52:19;100671.82;;;16.01;58.68
50682;BME280;36779;52.168;20.878;2023-08-24T01:54:52;100669.98;;;15.91;58.88
50682;BME280;36779;52.168;20.878;2023-08-24T01:57:25;100671.27;;;15.84;58.82
50682;BME280;36779;52.168;20.878;2023-08-24T01:59:57;100670.35;;;15.80;58.81
50682;BME280;36779;52.168;20.878;2023-08-24T02:02:30;100668.86;;;15.81;59.00
50682;BME280;36779;52.168;20.878;2023-08-24T02:05:05;100669.70;;;15.84;59.01
50682;BME280;36779;52.168;20.878;2023-08-24T02:07:40;100666.17;;;15.88;59.19
50682;BME280;36779;52.168;20.878;2023-08-24T02:10:15;100666.98;;;15.88;59.08
50682;BME280;36779;52.168;20.878;2023-08-24T02:12:48;100666.32;;;15.85;59.31
50682;BME280;36779;52.168;20.878;2023-08-24T02:15:20;100666.60;;;15.83;59.35
50682;BME280;36779;52.168;20.878;2023-08-24T02:17:52;100668.19;;;15.79;59.22
50682;BME280;36779;52.168;20.878;2023-08-24T02:20:26;100666.61;;;15.71;59.26
50682;BME280;36779;52.168;20.878;2023-08-24T02:22:58;100666.95;;;15.62;59.14
50682;BME280;36779;52.168;20.878;2023-08-24T02:25:31;100666.54;;;15.57;59.49
50682;BME280;36779;52.168;20.878;2023-08-24T02:28:04;100666.85;;;15.56;59.37
50682;BME280;36779;52.168;20.878;2023-08-24T02:30:39;100662.11;;;15.57;59.57
50682;BME280;36779;52.168;20.878;2023-08-24T02:33:12;100663.80;;;15.60;59.36
50682;BME280;36779;52.168;20.878;2023-08-24T02:35:48;100661.63;;;15.55;59.26
50682;BME280;36779;52.168;20.878;2023-08-24T02:38:21;100662.02;;;15.47;59.39
50682;BME280;36779;52.168;20.878;2023-08-24T02:41:03;100659.20;;;15.39;59.42
50682;BME280;36779;52.168;20.878;2023-08-24T02:43:36;100662.27;;;15.33;59.29
50682;BME280;36779;52.168;20.878;2023-08-24T02:46:10;100663.09;;;15.27;59.45
50682;BME280;36779;52.168;20.878;2023-08-24T02:48:43;100663.47;;;15.25;59.68
50682;BME280;36779;52.168;20.878;2023-08-24T02:51:17;100667.06;;;15.27;59.77
50682;BME280;36779;52.168;20.878;2023-08-24T02:53:50;100668.15;;;15.32;59.90
50682;BME280;36779;52.168;20.878;2023-08-24T02:56:24;100668.77;;;15.31;59.68
50682;BME280;36779;52.168;20.878;2023-08-24T02:58:57;100669.02;;;15.29;59.96
50682;BME280;36779;52.168;20.878;2023-08-24T03:01:30;100669.20;;;15.27;59.68
50682;BME280;36779;52.168;20.878;2023-08-24T03:04:04;100666.66;;;15.28;59.99
50682;BME280;36779;52.168;20.878;2023-08-24T03:06:37;100664.45;;;15.30;59.91
50682;BME280;36779;52.168;20.878;2023-08-24T03:09:09;100667.07;;;15.32;60.04
50682;BME280;36779;52.168;20.878;2023-08-24T03:11:43;100665.06;;;15.29;60.15
50682;BME280;36779;52.168;20.878;2023-08-24T03:14:18;100664.96;;;15.25;60.05
50682;BME280;36779;52.168;20.878;2023-08-24T03:16:51;100667.25;;;15.23;60.02
50682;BME280;36779;52.168;20.878;2023-08-24T03:19:24;100667.39;;;15.23;60.11
50682;BME280;36779;52.168;20.878;2023-08-24T03:21:56;100663.78;;;15.23;60.16
50682;BME280;36779;52.168;20.878;2023-08-24T03:24:30;100663.92;;;15.22;60.15
50682;BME280;36779;52.168;20.878;2023-08-24T03:27:03;100661.20;;;15.28;60.63
50682;BME280;36779;52.168;20.878;2023-08-24T03:29:34;100663.11;;;15.38;60.51
50682;BME280;36779;52.168;20.878;2023-08-24T03:32:07;100663.06;;;15.41;60.42
50682;BME280;36779;52.168;20.878;2023-08-24T03:34:39;100663.14;;;15.39;60.56
50682;BME280;36779;52.168;20.878;2023-08-24T03:37:11;100662.46;;;15.33;60.38
50682;BME280;36779;52.168;20.878;2023-08-24T03:39:47;100663.14;;;15.27;60.33
50682;BME280;36779;52.168;20.878;2023-08-24T03:42:21;100658.98;;;15.32;60.72
50682;BME280;36779;52.168;20.878;2023-08-24T03:44:56;100656.09;;;15.38;60.75
50682;BME280;36779;52.168;20.878;2023-08-24T03:47:30;100655.84;;;15.42;60.91
50682;BME280;36779;52.168;20.878;2023-08-24T03:50:03;100653.92;;;15.44;60.81
50682;BME280;36779;52.168;20.878;2023-08-24T03:52:35;100653.48;;;15.43;60.76
50682;BME280;36779;52.168;20.878;2023-08-24T03:55:09;100654.52;;;15.42;60.64
50682;BME280;36779;52.168;20.878;2023-08-24T03:57:45;100655.70;;;15.41;60.59
50682;BME280;36779;52.168;20.878;2023-08-24T04:00:18;100654.30;;;15.44;60.90
50682;BME280;36779;52.168;20.878;2023-08-24T04:02:51;100662.52;;;15.46;60.72
50682;BME280;36779;52.168;20.878;2023-08-24T04:05:26;100663.92;;;15.43;60.63
50682;BME280;36779;52.168;20.878;2023-08-24T04:07:59;100664.36;;;15.42;60.79
50682;BME280;36779;52.168;20.878;2023-08-24T04:10:33;100666.50;;;15.41;60.81
50682;BME280;36779;52.168;20.878;2023-08-24T04:13:06;100664.61;;;15.42;60.82
50682;BME280;36779;52.168;20.878;2023-08-24T04:15:40;100670.09;;;15.44;60.93
50682;BME280;36779;52.168;20.878;2023-08-24T04:18:14;100670.94;;;15.46;60.84
50682;BME280;36779;52.168;20.878;2023-08-24T04:20:47;100670.77;;;15.56;61.17
50682;BME280;36779;52.168;20.878;2023-08-24T04:23:25;100672.55;;;15.65;61.26
50682;BME280;36779;52.168;20.878;2023-08-24T04:25:57;100667.47;;;15.71;60.94
50682;BME280;36779;52.168;20.878;2023-08-24T04:28:29;100669.34;;;15.72;61.04
50682;BME280;36779;52.168;20.878;2023-08-24T04:31:01;100668.92;;;15.81;61.25
50682;BME280;36779;52.168;20.878;2023-08-24T04:33:34;100670.48;;;15.91;61.29
50682;BME280;36779;52.168;20.878;2023-08-24T04:36:06;100670.61;;;16.00;61.45
50682;BME280;36779;52.168;20.878;2023-08-24T04:38:41;100671.40;;;16.12;61.64
50682;BME280;36779;52.168;20.878;2023-08-24T04:41:21;100662.05;;;16.19;61.45
50682;BME280;36779;52.168;20.878;2023-08-24T04:43:53;100661.31;;;16.30;61.65
50682;BME280;36779;52.168;20.878;2023-08-24T04:46:27;100667.62;;;16.46;61.77
50682;BME280;36779;52.168;20.878;2023-08-24T04:49:00;100667.89;;;17.02;62.73
50682;BME280;36779;52.168;20.878;2023-08-24T04:51:34;100663.51;;;17.75;62.70
50682;BME280;36779;52.168;20.878;2023-08-24T04:54:07;100664.15;;;18.28;62.68
50682;BME280;36779;52.168;20.878;2023-08-24T04:56:39;100667.08;;;18.77;62.52
50682;BME280;36779;52.168;20.878;2023-08-24T04:59:11;100668.67;;;19.29;62.75
50682;BME280;36779;52.168;20.878;2023-08-24T05:01:46;100671.85;;;19.73;62.03
50682;BME280;36779;52.168;20.878;2023-08-24T05:04:19;100672.02;;;19.72;61.32
50682;BME280;36779;52.168;20.878;2023-08-24T05:06:51;100671.19;;;19.79;61.37
50682;BME280;36779;52.168;20.878;2023-08-24T05:09:25;100674.63;;;19.84;60.81
50682;BME280;36779;52.168;20.878;2023-08-24T05:12:00;100678.39;;;19.69;60.50
50682;BME280;36779;52.168;20.878;2023-08-24T05:14:33;100679.90;;;19.63;60.47
50682;BME280;36779;52.168;20.878;2023-08-24T05:17:05;100678.52;;;19.55;60.45
50682;BME280;36779;52.168;20.878;2023-08-24T05:19:37;100676.45;;;19.50;60.38
50682;BME280;36779;52.168;20.878;2023-08-24T05:22:09;100677.95;;;20.04;61.75
50682;BME280;36779;52.168;20.878;2023-08-24T05:24:44;100675.60;;;21.18;62.69
50682;BME280;36779;52.168;20.878;2023-08-24T05:27:17;100672.20;;;22.00;62.15
50682;BME280;36779;52.168;20.878;2023-08-24T05:29:49;100667.03;;;22.37;61.37
50682;BME280;36779;52.168;20.878;2023-08-24T05:32:21;100671.52;;;22.57;60.59
50682;BME280;36779;52.168;20.878;2023-08-24T05:34:54;100671.83;;;22.58;60.00
50682;BME280;36779;52.168;20.878;2023-08-24T05:37:26;100671.82;;;22.47;59.41
50682;BME280;36779;52.168;20.878;2023-08-24T05:39:58;100670.98;;;22.31;59.12
50682;BME280;36779;52.168;20.878;2023-08-24T05:42:34;100674.06;;;22.12;59.01
50682;BME280;36779;52.168;20.878;2023-08-24T05:45:10;100676.30;;;21.95;58.73
50682;BME280;36779;52.168;20.878;2023-08-24T05:47:43;100680.79;;;21.75;58.73
50682;BME280;36779;52.168;20.878;2023-08-24T05:50:17;100683.89;;;21.59;58.58
50682;BME280;36779;52.168;20.878;2023-08-24T05:52:49;100681.45;;;21.42;58.45
50682;BME280;36779;52.168;20.878;2023-08-24T05:55:21;100680.73;;;21.30;58.57
50682;BME280;36779;52.168;20.878;2023-08-24T05:57:54;100682.17;;;21.20;58.69
50682;BME280;36779;52.168;20.878;2023-08-24T06:00:26;100681.44;;;21.14;58.76
50682;BME280;36779;52.168;20.878;2023-08-24T06:02:58;100680.02;;;21.10;58.68
50682;BME280;36779;52.168;20.878;2023-08-24T06:05:33;100678.61;;;21.05;58.55
50682;BME280;36779;52.168;20.878;2023-08-24T06:08:06;100679.69;;;21.01;58.60
50682;BME280;36779;52.168;20.878;2023-08-24T06:10:39;100679.04;;;20.99;58.64
50682;BME280;36779;52.168;20.878;2023-08-24T06:13:11;100679.33;;;20.97;58.48
50682;BME280;36779;52.168;20.878;2023-08-24T06:15:44;100684.30;;;20.96;58.42
50682;BME280;36779;52.168;20.878;2023-08-24T06:18:20;100677.11;;;20.93;58.51
50682;BME280;36779;52.168;20.878;2023-08-24T06:20:52;100676.52;;;20.93;58.42
50682;BME280;36779;52.168;20.878;2023-08-24T06:23:25;100672.77;;;20.93;58.33
50682;BME280;36779;52.168;20.878;2023-08-24T06:25:57;100676.15;;;20.96;58.42
50682;BME280;36779;52.168;20.878;2023-08-24T06:28:30;100673.05;;;20.99;58.44
50682;BME280;36779;52.168;20.878;2023-08-24T06:31:02;100674.65;;;21.05;58.38
50682;BME280;36779;52.168;20.878;2023-08-24T06:33:36;100672.30;;;21.10;58.37
50682;BME280;36779;52.168;20.878;2023-08-24T06:36:09;100668.70;;;21.16;58.47
50682;BME280;36779;52.168;20.878;2023-08-24T06:38:48;100669.75;;;21.22;58.21
50682;BME280;36779;52.168;20.878;2023-08-24T06:41:21;100669.33;;;21.31;58.24
50682;BME280;36779;52.168;20.878;2023-08-24T06:43:54;100669.67;;;21.53;58.50
50682;BME280;36779;52.168;20.878;2023-08-24T06:46:26;100673.52;;;21.82;58.43
50682;BME280;36779;52.168;20.878;2023-08-24T06:48:59;100668.10;;;22.05;58.40
50682;BME280;36779;52.168;20.878;2023-08-24T06:51:31;100668.94;;;22.19;58.11
50682;BME280;36779;52.168;20.878;2023-08-24T06:54:06;100669.16;;;22.34;58.05
50682;BME280;36779;52.168;20.878;2023-08-24T06:56:39;100668.20;;;22.55;57.96
50682;BME280;36779;52.168;20.878;2023-08-24T06:59:11;100666.43;;;22.71;57.86
50682;BME280;36779;52.168;20.878;2023-08-24T07:01:44;100667.98;;;22.81;57.52
50682;BME280;36779;52.168;20.878;2023-08-24T07:04:18;100671.77;;;22.88;57.45
50682;BME280;36779;52.168;20.878;2023-08-24T07:06:51;100671.77;;;22.95;57.37
50682;BME280;36779;52.168;20.878;2023-08-24T07:09:23;100677.67;;;23.09;57.44
50682;BME280;36779;52.168;20.878;2023-08-24T07:11:55;100677.59;;;23.21;57.24
50682;BME280;36779;52.168;20.878;2023-08-24T07:14:30;100679.20;;;23.24;57.06
50682;BME280;36779;52.168;20.878;2023-08-24T07:17:02;100682.67;;;23.29;57.05
50682;BME280;36779;52.168;20.878;2023-08-24T07:19:35;100686.14;;;23.36;56.96
50682;BME280;36779;52.168;20.878;2023-08-24T07:22:07;100683.70;;;23.41;56.85
50682;BME280;36779;52.168;20.878;2023-08-24T07:24:40;100688.41;;;23.48;56.81
50682;BME280;36779;52.168;20.878;2023-08-24T07:27:18;100692.13;;;23.57;56.80
50682;BME280;36779;52.168;20.878;2023-08-24T07:29:50;100693.86;;;23.64;56.59
50682;BME280;36779;52.168;20.878;2023-08-24T07:32:22;100693.36;;;23.64;56.35
50682;BME280;36779;52.168;20.878;2023-08-24T07:34:57;100691.48;;;23.60;56.30
50682;BME280;36779;52.168;20.878;2023-08-24T07:37:30;100692.68;;;23.69;56.48
50682;BME280;36779;52.168;20.878;2023-08-24T07:40:06;100691.10;;;23.78;56.24
50682;BME280;36779;52.168;20.878;2023-08-24T07:42:48;100691.27;;;23.86;56.36
50682;BME280;36779;52.168;20.878;2023-08-24T07:45:22;100691.08;;;24.01;56.34
50682;BME280;36779;52.168;20.878;2023-08-24T07:47:55;100692.40;;;24.17;56.27
50682;BME280;36779;52.168;20.878;2023-08-24T07:50:27;100686.17;;;24.32;56.13
50682;BME280;36779;52.168;20.878;2023-08-24T07:53:00;100688.09;;;24.43;56.00
50682;BME280;36779;52.168;20.878;2023-08-24T07:55:35;100684.99;;;24.50;55.87
50682;BME280;36779;52.168;20.878;2023-08-24T07:58:07;100683.81;;;24.62;55.84
50682;BME280;36779;52.168;20.878;2023-08-24T08:00:40;100681.30;;;24.75;55.64
50682;BME280;36779;52.168;20.878;2023-08-24T08:03:12;100674.44;;;24.82;55.59
50682;BME280;36779;52.168;20.878;2023-08-24T08:05:46;100671.00;;;24.94;55.46
50682;BME280;36779;52.168;20.878;2023-08-24T08:08:18;100674.91;;;25.10;55.32
50682;BME280;36779;52.168;20.878;2023-08-24T08:10:58;100670.38;;;25.21;55.19
50682;BME280;36779;52.168;20.878;2023-08-24T08:13:32;100675.26;;;25.26;55.04
50682;BME280;36779;52.168;20.878;2023-08-24T08:16:06;100674.98;;;25.30;55.05
50682;BME280;36779;52.168;20.878;2023-08-24T08:18:40;100674.98;;;25.34;54.94
50682;BME280;36779;52.168;20.878;2023-08-24T08:21:17;100673.14;;;25.36;54.75
50682;BME280;36779;52.168;20.878;2023-08-24T08:23:52;100672.95;;;25.38;54.56
50682;BME280;36779;52.168;20.878;2023-08-24T08:26:24;100673.40;;;25.33;54.29
50682;BME280;36779;52.168;20.878;2023-08-24T08:28:57;100673.90;;;25.35;54.36
50682;BME280;36779;52.168;20.878;2023-08-24T08:31:29;100677.13;;;25.40;54.37
50682;BME280;36779;52.168;20.878;2023-08-24T08:34:01;100673.64;;;25.49;54.22
50682;BME280;36779;52.168;20.878;2023-08-24T08:36:35;100673.32;;;25.63;54.17
50682;BME280;36779;52.168;20.878;2023-08-24T08:39:07;100673.59;;;25.74;54.11
50682;BME280;36779;52.168;20.878;2023-08-24T08:41:43;100676.46;;;25.82;53.87
50682;BME280;36779;52.168;20.878;2023-08-24T08:44:17;100671.15;;;25.86;53.60
50682;BME280;36779;52.168;20.878;2023-08-24T08:46:51;100669.77;;;25.91;53.59
50682;BME280;36779;52.168;20.878;2023-08-24T08:49:25;100668.86;;;25.97;53.54
50682;BME280;36779;52.168;20.878;2023-08-24T08:51:57;100668.67;;;26.17;53.59
50682;BME280;36779;52.168;20.878;2023-08-24T08:54:29;100668.09;;;26.36;53.48
50682;BME280;36779;52.168;20.878;2023-08-24T08:57:05;100669.16;;;26.50;53.24
50682;BME280;36779;52.168;20.878;2023-08-24T08:59:38;100668.27;;;26.70;53.39
50682;BME280;36779;52.168;20.878;2023-08-24T09:02:16;100667.40;;;26.94;53.42
50682;BME280;36779;52.168;20.878;2023-08-24T09:04:49;100666.71;;;27.24;53.34
50682;BME280;36779;52.168;20.878;2023-08-24T09:07:23;100667.04;;;27.47;53.09
50682;BME280;36779;52.168;20.878;2023-08-24T09:09:55;100667.96;;;27.74;53.05
50682;BME280;36779;52.168;20.878;2023-08-24T09:12:28;100670.19;;;28.02;52.75
50682;BME280;36779;52.168;20.878;2023-08-24T09:15:04;100668.95;;;28.18;52.35
50682;BME280;36779;52.168;20.878;2023-08-24T09:17:43;100668.25;;;28.19;51.90
50682;BME280;36779;52.168;20.878;2023-08-24T09:20:18;100663.86;;;28.18;51.74
50682;BME280;36779;52.168;20.878;2023-08-24T09:22:50;100659.59;;;28.31;51.84
50682;BME280;36779;52.168;20.878;2023-08-24T09:25:25;100655.11;;;28.60;51.95
50682;BME280;36779;52.168;20.878;2023-08-24T09:28:02;100656.13;;;28.85;51.72
50682;BME280;36779;52.168;20.878;2023-08-24T09:30:38;100652.88;;;29.19;51.63
50682;BME280;36779;52.168;20.878;2023-08-24T09:33:12;100652.90;;;29.43;51.30
50682;BME280;36779;52.168;20.878;2023-08-24T09:35:50;100649.80;;;29.46;50.87
50682;BME280;36779;52.168;20.878;2023-08-24T09:38:22;100645.23;;;29.51;50.66
50682;BME280;36779;52.168;20.878;2023-08-24T09:40:56;100644.30;;;29.64;50.60
50682;BME280;36779;52.168;20.878;2023-08-24T09:43:31;100641.43;;;29.77;50.42
50682;BME280;36779;52.168;20.878;2023-08-24T09:46:04;100640.61;;;29.93;50.20
50682;BME280;36779;52.168;20.878;2023-08-24T09:48:38;100646.27;;;30.04;49.84
50682;BME280;36779;52.168;20.878;2023-08-24T09:51:11;100644.98;;;30.07;49.65
50682;BME280;36779;52.168;20.878;2023-08-24T09:53:51;100645.27;;;30.21;49.56
50682;BME280;36779;52.168;20.878;2023-08-24T09:56:25;100646.75;;;30.43;49.64
50682;BME280;36779;52.168;20.878;2023-08-24T09:59:02;100644.30;;;30.64;49.30
50682;BME280;36779;52.168;20.878;2023-08-24T10:01:38;100643.95;;;30.72;49.05
50682;BME280;36779;52.168;20.878;2023-08-24T10:04:11;100641.61;;;30.69;48.88
50682;BME280;36779;52.168;20.878;2023-08-24T10:06:50;100641.57;;;30.80;48.79
50682;BME280;36779;52.168;20.878;2023-08-24T10:09:30;100643.70;;;30.87;48.51
50682;BME280;36779;52.168;20.878;2023-08-24T10:12:05;100643.73;;;30.90;48.26
50682;BME280;36779;52.168;20.878;2023-08-24T10:14:47;100646.70;;;30.85;48.05
50682;BME280;36779;52.168;20.878;2023-08-24T10:17:24;100644.30;;;30.93;47.81
50682;BME280;36779;52.168;20.878;2023-08-24T10:19:57;100643.92;;;30.93;47.79
50682;BME280;36779;52.168;20.878;2023-08-24T10:22:32;100643.01;;;30.85;47.28
50682;BME280;36779;52.168;20.878;2023-08-24T10:25:08;100642.08;;;30.80;47.39
50682;BME280;36779;52.168;20.878;2023-08-24T10:27:41;100647.48;;;30.84;47.19
50682;BME280;36779;52.168;20.878;2023-08-24T10:30:18;100645.08;;;30.70;46.94
50682;BME280;36779;52.168;20.878;2023-08-24T10:32:53;100640.89;;;30.58;46.83
50682;BME280;36779;52.168;20.878;2023-08-24T10:35:27;100644.63;;;30.59;46.95
50682;BME280;36779;52.168;20.878;2023-08-24T10:38:00;100645.22;;;30.60;46.76
50682;BME280;36779;52.168;20.878;2023-08-24T10:40:36;100639.20;;;30.58;46.78
50682;BME280;36779;52.168;20.878;2023-08-24T10:43:10;100639.51;;;30.70;46.91
50682;BME280;36779;52.168;20.878;2023-08-24T10:46:00;100631.85;;;30.94;46.81
50682;BME280;36779;52.168;20.878;2023-08-24T10:48:57;100628.02;;;31.08;46.55
50682;BME280;36779;52.168;20.878;2023-08-24T10:51:30;100634.17;;;31.23;46.51
50682;BME280;36779;52.168;20.878;2023-08-24T10:54:03;100635.16;;;31.31;46.40
50682;BME280;36779;52.168;20.878;2023-08-24T10:56:38;100628.67;;;31.37;46.11
50682;BME280;36779;52.168;20.878;2023-08-24T10:59:15;100622.38;;;31.33;45.79
50682;BME280;36779;52.168;20.878;2023-08-24T11:01:57;100629.89;;;31.32;45.56
50682;BME280;36779;52.168;20.878;2023-08-24T11:04:30;100627.48;;;31.15;45.28
50682;BME280;36779;52.168;20.878;2023-08-24T11:07:03;100626.66;;;30.91;45.15
50682;BME280;36779;52.168;20.878;2023-08-24T11:09:47;100621.18;;;30.84;45.20
50682;BME280;36779;52.168;20.878;2023-08-24T11:12:19;100614.16;;;31.02;45.55
50682;BME280;36779;52.168;20.878;2023-08-24T11:14:52;100619.91;;;31.18;45.50
50682;BME280;36779;52.168;20.878;2023-08-24T11:17:31;100617.06;;;31.20;45.16
50682;BME280;36779;52.168;20.878;2023-08-24T11:20:05;100617.70;;;31.13;45.13
50682;BME280;36779;52.168;20.878;2023-08-24T11:22:39;100620.75;;;31.25;45.28
50682;BME280;36779;52.168;20.878;2023-08-24T11:25:14;100618.09;;;31.32;45.10
50682;BME280;36779;52.168;20.878;2023-08-24T11:27:46;100617.63;;;31.34;44.94
50682;BME280;36779;52.168;20.878;2023-08-24T11:30:19;100616.64;;;31.35;44.73
50682;BME280;36779;52.168;20.878;2023-08-24T11:32:54;100613.79;;;31.33;44.79
50682;BME280;36779;52.168;20.878;2023-08-24T11:35:27;100614.04;;;31.40;44.85
50682;BME280;36779;52.168;20.878;2023-08-24T11:37:59;100611.33;;;31.49;44.64
50682;BME280;36779;52.168;20.878;2023-08-24T11:40:31;100608.34;;;31.53;44.62
50682;BME280;36779;52.168;20.878;2023-08-24T11:43:04;100608.30;;;31.56;44.59
50682;BME280;36779;52.168;20.878;2023-08-24T11:45:37;100605.95;;;31.59;44.39
50682;BME280;36779;52.168;20.878;2023-08-24T11:48:12;100603.23;;;31.61;44.41
50682;BME280;36779;52.168;20.878;2023-08-24T11:50:46;100596.39;;;31.61;44.36
50682;BME280;36779;52.168;20.878;2023-08-24T11:53:20;100592.86;;;31.61;44.11
50682;BME280;36779;52.168;20.878;2023-08-24T11:55:57;100594.27;;;31.54;44.06
50682;BME280;36779;52.168;20.878;2023-08-24T11:58:38;100592.95;;;31.47;44.03
50682;BME280;36779;52.168;20.878;2023-08-24T12:01:12;100588.17;;;31.61;44.20
50682;BME280;36779;52.168;20.878;2023-08-24T12:03:50;100587.55;;;31.85;44.32
50682;BME280;36779;52.168;20.878;2023-08-24T12:06:26;100589.85;;;32.02;44.02
50682;BME280;36779;52.168;20.878;2023-08-24T12:08:58;100586.27;;;31.94;43.68
50682;BME280;36779;52.168;20.878;2023-08-24T12:11:36;100582.73;;;31.79;43.44
50682;BME280;36779;52.168;20.878;2023-08-24T12:14:18;100582.10;;;31.73;43.30
50682;BME280;36779;52.168;20.878;2023-08-24T12:16:50;100576.98;;;31.54;42.98
50682;BME280;36779;52.168;20.878;2023-08-24T12:19:25;100569.33;;;31.29;42.86
50682;BME280;36779;52.168;20.878;2023-08-24T12:21:57;100570.17;;;31.11;42.93
50682;BME280;36779;52.168;20.878;2023-08-24T12:24:29;100565.98;;;31.07;42.94
50682;BME280;36779;52.168;20.878;2023-08-24T12:27:01;100560.20;;;31.06;43.11
50682;BME280;36779;52.168;20.878;2023-08-24T12:29:34;100560.13;;;30.94;42.74
50682;BME280;36779;52.168;20.878;2023-08-24T12:32:07;100556.57;;;30.68;42.61
50682;BME280;36779;52.168;20.878;2023-08-24T12:34:39;100555.61;;;30.48;42.69
50682;BME280;36779;52.168;20.878;2023-08-24T12:37:11;100556.80;;;30.29;42.77
50682;BME280;36779;52.168;20.878;2023-08-24T12:39:45;100555.27;;;30.12;42.65
50682;BME280;36779;52.168;20.878;2023-08-24T12:42:19;100555.45;;;29.89;42.63
50682;BME280;36779;52.168;20.878;2023-08-24T12:44:52;100559.02;;;29.69;42.76
50682;BME280;36779;52.168;20.878;2023-08-24T12:47:24;100558.74;;;29.57;42.77
50682;BME280;36779;52.168;20.878;2023-08-24T12:49:56;100551.95;;;29.45;42.69
50682;BME280;36779;52.168;20.878;2023-08-24T12:52:29;100551.20;;;29.33;42.69
50682;BME280;36779;52.168;20.878;2023-08-24T12:55:02;100555.31;;;29.21;42.76
50682;BME280;36779;52.168;20.878;2023-08-24T12:57:35;100557.25;;;29.07;42.72
50682;BME280;36779;52.168;20.878;2023-08-24T13:00:10;100554.03;;;28.98;42.81
50682;BME280;36779;52.168;20.878;2023-08-24T13:02:43;100553.34;;;28.89;42.97
50682;BME280;36779;52.168;20.878;2023-08-24T13:05:17;100554.95;;;28.85;42.95
50682;BME280;36779;52.168;20.878;2023-08-24T13:07:49;100554.69;;;28.82;43.09
50682;BME280;36779;52.168;20.878;2023-08-24T13:10:23;100550.81;;;28.75;42.90
50682;BME280;36779;52.168;20.878;2023-08-24T13:12:56;100544.27;;;28.62;42.94
50682;BME280;36779;52.168;20.878;2023-08-24T13:15:28;100537.84;;;28.62;43.06